Terminal Aerodrome Forecast
Issued by NWS

Home | Current Version | Previous Version | Text Only | Print | Product List | Glossary On
Versions: 1 2 3 4 5 6 7 8 9 10 11 12 13 14 15 16 17 18 19 20 21 22 23 24
000
FTUS43 KGLD 221720
TAFMCK
TAF
KMCK 221720Z 2218/2318 26013G22KT P6SM SKC
     FM222200 26010KT P6SM SKC
     FM230000 22006KT P6SM SKC
     FM230600 26010KT P6SM SCT270 WS020/30035KT
     FM230800 30013KT P6SM FEW270 WS020/33040KT
     FM231400 33017G25KT P6SM SCT070=

USA.gov is the U.S. government's official web portal to all federal, state and local government web resources and services.